Time;durP1;ratioP1;P1;durP2;ratioP2;P2;SDS_P1;SDS_P2;PMS_P1;PMS_P2;Temp;Humidity;BMP_temperature;BMP_pressure;BME280_temperature;BME280_humidity;BME280_pressure;Samples;Min_cycle;Max_cycle;Signal;HPM_P1;HPM_P2
2022/05/30 10:40:03;;;;;;;7.47;1.45;;;;;;;18.02;33.92;96047.94;2089869;28;20559;-59
2022/05/30 10:42:20;;;;;;;6.18;3.42;;;;;;;17.73;35.62;96053.81;2086083;28;20665;-60
2022/05/30 10:43:27;;;;;;;44.42;3.72;;;;;;;17.24;35.34;96042.84;2093155;28;20192;-61
2022/05/30 10:44:38;;;;;;;2.53;1.48;;;;;;;17.03;36.10;96037.50;2079579;28;20232;-61
2022/05/30 10:45:47;;;;;;;10.13;1.88;;;;;;;17.45;35.15;96045.53;2081273;28;20227;-61
2022/05/30 10:47:07;;;;;;;16.90;1.80;;;;;;;17.97;35.93;96046.63;2082599;28;20224;-61
2022/05/30 10:48:18;;;;;;;14.73;2.85;;;;;;;18.13;34.31;96047.00;2082014;28;20220;-61
2022/05/30 10:49:22;;;;;;;22.00;2.05;;;;;;;17.36;34.06;96048.09;2081614;28;20197;-62
2022/05/30 10:50:46;;;;;;;3.25;1.60;;;;;;;17.23;34.04;96042.94;2083808;28;20201;-61
2022/05/30 10:52:04;;;;;;;2.85;1.45;;;;;;;16.15;36.67;96033.78;2075781;28;20234;-61
2022/05/30 10:53:08;;;;;;;3.70;1.55;;;;;;;16.69;36.94;96048.06;2093483;28;20550;-61
2022/05/30 10:54:42;;;;;;;2.08;1.20;;;;;;;16.77;35.09;96048.31;2083128;28;20247;-62
2022/05/30 10:55:48;;;;;;;3.33;1.42;;;;;;;17.54;37.34;96051.84;2079285;28;20192;-61
2022/05/30 10:56:52;;;;;;;2.15;1.10;;;;;;;17.67;35.02;96053.47;2074799;28;20227;-61
2022/05/30 10:58:01;;;;;;;3.03;1.30;;;;;;;18.93;34.08;96049.88;2098695;28;20204;-61
2022/05/30 10:59:16;;;;;;;3.58;1.20;;;;;;;19.78;34.32;96052.09;2088028;28;20201;-61
2022/05/30 11:00:21;;;;;;;7.70;1.40;;;;;;;20.37;35.66;96047.56;2080981;28;20212;-61
2022/05/30 11:01:46;;;;;;;4.05;1.52;;;;;;;20.68;32.74;96052.63;2073830;28;20199;-62
2022/05/30 11:03:15;;;;;;;8.05;1.52;;;;;;;20.67;31.18;96053.59;2082408;28;20204;-61
2022/05/30 11:04:49;;;;;;;3.78;1.10;;;;;;;21.11;32.30;96055.66;2083678;28;20871;-61
2022/05/30 11:05:57;;;;;;;4.68;1.23;;;;;;;21.08;32.57;96055.94;2080326;28;20589;-61
2022/05/30 11:07:28;;;;;;;6.75;1.50;;;;;;;21.24;31.69;96056.13;2082783;28;20774;-62
2022/05/30 11:08:47;;;;;;;3.20;1.02;;;;;;;21.73;31.66;96049.69;2082080;28;20212;-61
2022/05/30 11:10:04;;;;;;;8.75;1.85;;;;;;;21.67;31.82;96049.31;2084533;28;20641;-61
2022/05/30 11:11:14;;;;;;;5.20;1.40;;;;;;;21.05;30.83;96046.47;2079604;28;20208;-61
2022/05/30 11:12:20;;;;;;;3.15;1.25;;;;;;;20.43;32.80;96046.16;2086472;28;20373;-61
2022/05/30 11:13:40;;;;;;;2.88;1.20;;;;;;;20.39;34.30;96046.44;2090445;28;20207;-61
2022/05/30 11:14:45;;;;;;;2.83;1.10;;;;;;;21.03;31.02;96040.47;2083757;28;20201;-61
2022/05/30 11:15:52;;;;;;;3.00;1.52;;;;;;;20.38;32.70;96046.59;2084000;28;20196;-61
2022/05/30 11:17:08;;;;;;;3.95;1.13;;;;;;;20.06;32.83;96047.75;2079369;28;20223;-61
2022/05/30 11:18:15;;;;;;;3.28;1.40;;;;;;;19.38;32.67;96044.13;2094769;28;20242;-61
2022/05/30 11:19:55;;;;;;;1.85;1.10;;;;;;;19.79;32.72;96059.06;2080079;28;20197;-61
2022/05/30 11:20:56;;;;;;;5.47;1.40;;;;;;;20.66;32.52;96058.06;2081700;28;20555;-61
2022/05/30 11:22:14;;;;;;;3.85;1.02;;;;;;;20.84;30.80;96058.16;2081422;28;20291;-61
2022/05/30 11:23:15;;;;;;;3.45;1.42;;;;;;;20.83;30.16;96051.19;2095349;28;20675;-61
2022/05/30 11:24:17;;;;;;;3.63;1.40;;;;;;;20.93;29.76;96055.63;2081890;28;20205;-60
2022/05/30 11:25:41;;;;;;;2.53;1.42;;;;;;;20.74;30.10;96057.38;2080106;28;20208;-61
2022/05/30 11:27:15;;;;;;;2.50;1.60;;;;;;;21.48;31.70;96052.06;2079062;28;20598;-60
2022/05/30 11:28:41;;;;;;;3.50;1.35;;;;;;;21.46;29.60;96046.91;2072314;28;20889;-61
2022/05/30 11:29:57;;;;;;;2.60;1.25;;;;;;;20.78;26.94;96055.28;2077665;28;20200;-61
2022/05/30 11:31:08;;;;;;;6.07;1.40;;;;;;;19.48;32.10;96046.78;2075835;28;20189;-61
2022/05/30 11:32:41;;;;;;;2.55;1.13;;;;;;;20.68;30.60;96053.47;2072949;28;20753;-61
2022/05/30 11:33:59;;;;;;;5.03;1.45;;;;;;;20.93;31.05;96051.13;2091014;28;20201;-63
2022/05/30 11:35:26;;;;;;;2.97;1.25;;;;;;;21.67;30.70;96049.31;2084253;28;20261;-63
2022/05/30 11:36:37;;;;;;;3.70;1.20;;;;;;;21.83;30.37;96053.91;2073370;28;20197;-63
2022/05/30 11:38:10;;;;;;;2.30;1.00;;;;;;;22.06;30.62;96066.72;2095391;28;20200;-63
2022/05/30 11:39:38;;;;;;;3.58;1.50;;;;;;;22.07;30.02;96067.53;2083763;28;20220;-64
2022/05/30 11:40:51;;;;;;;7.75;1.50;;;;;;;22.06;29.38;96058.75;2077441;28;20202;-63
2022/05/30 11:42:14;;;;;;;5.95;1.30;;;;;;;21.60;29.68;96060.66;2080487;28;20234;-64
2022/05/30 11:43:37;;;;;;;5.55;1.33;;;;;;;20.84;30.50;96057.34;2098534;28;20648;-63
2022/05/30 11:44:50;;;;;;;3.47;1.10;;;;;;;20.29;31.57;96064.19;2083331;28;20279;-63
2022/05/30 11:46:01;;;;;;;1.95;0.90;;;;;;;20.23;32.04;96064.75;2078660;28;20200;-63
2022/05/30 11:47:26;;;;;;;4.03;1.48;;;;;;;20.31;30.61;96059.56;2081959;28;20225;-63
2022/05/30 11:48:58;;;;;;;2.58;1.17;;;;;;;21.11;30.44;96068.94;2081201;28;20192;-63
2022/05/30 11:50:22;;;;;;;4.22;1.20;;;;;;;21.63;29.74;96069.16;2082071;28;20193;-63
2022/05/30 11:51:54;;;;;;;2.58;1.52;;;;;;;21.69;29.38;96063.25;2073848;28;20218;-63
2022/05/30 11:53:07;;;;;;;4.28;1.05;;;;;;;22.12;28.84;96068.75;2093513;28;20196;-63
2022/05/30 11:54:36;;;;;;;2.50;1.10;;;;;;;22.14;27.82;96065.94;2077077;28;20201;-63
2022/05/30 11:55:48;;;;;;;5.38;1.60;;;;;;;21.43;26.53;96059.66;2075865;28;20200;-63
2022/05/30 11:57:05;;;;;;;3.00;1.50;;;;;;;19.92;28.20;96058.81;2074402;28;20228;-63
2022/05/30 11:58:18;;;;;;;3.08;1.38;;;;;;;19.28;29.63;96064.47;2089648;28;20203;-63
2022/05/30 11:59:20;;;;;;;3.83;1.40;;;;;;;18.73;29.80;96060.38;2075888;28;20273;-63
2022/05/30 12:00:33;;;;;;;3.25;1.42;;;;;;;18.71;29.80;96070.25;2076745;28;20202;-64
2022/05/30 12:01:37;;;;;;;5.75;1.63;;;;;;;18.13;30.90;96062.84;2060074;28;20272;-63
2022/05/30 12:02:55;;;;;;;2.92;1.17;;;;;;;18.48;31.36;96069.59;2078007;28;20200;-63
2022/05/30 12:04:18;;;;;;;3.95;1.17;;;;;;;20.01;29.98;96066.75;2082727;28;20315;-63
2022/05/30 12:05:48;;;;;;;3.67;1.42;;;;;;;19.18;30.64;96068.91;2074590;28;20223;-63
2022/05/30 12:07:03;;;;;;;2.72;1.13;;;;;;;17.94;30.59;96066.22;2075128;28;20226;-69
2022/05/30 12:08:07;;;;;;;3.50;1.23;;;;;;;17.77;31.59;96062.31;2067663;28;20197;-69
2022/05/30 12:09:46;;;;;;;5.00;1.42;;;;;;;18.50;31.36;96069.47;2068135;28;20202;-69
2022/05/30 12:11:29;;;;;;;3.15;1.20;;;;;;;17.70;31.64;96062.00;2071562;28;20202;-69
2022/05/30 12:12:45;;;;;;;5.45;1.92;;;;;;;17.65;32.46;96064.19;2067888;28;20285;-69
2022/05/30 12:13:58;;;;;;;1.73;1.00;;;;;;;18.06;30.85;96061.72;2074396;28;20207;-68
2022/05/30 12:15:18;;;;;;;3.58;1.55;;;;;;;17.50;32.19;96061.00;2070218;28;20228;-68
2022/05/30 12:16:26;;;;;;;6.90;1.60;;;;;;;17.99;31.85;96056.13;2073137;28;20244;-69
2022/05/30 12:24:08;;;;;;;4.60;1.30;;;;;;;18.61;29.53;96061.44;2078127;28;20208;-68
2022/05/30 12:25:52;;;;;;;9.68;1.27;;;;;;;18.18;30.67;96060.69;2071095;28;20197;-69
2022/05/30 12:27:06;;;;;;;3.78;1.20;;;;;;;18.54;31.19;96057.69;2076803;28;20217;-67
2022/05/30 12:28:27;;;;;;;4.15;1.30;;;;;;;19.33;31.70;96064.88;2071343;28;20212;-67
2022/05/30 12:29:44;;;;;;;11.13;1.60;;;;;;;19.28;30.39;96067.09;2074041;28;20224;-67
2022/05/30 12:30:46;;;;;;;2.65;1.17;;;;;;;18.34;30.55;96060.22;2073512;28;20194;-67
2022/05/30 12:32:32;;;;;;;2.95;1.00;;;;;;;18.33;30.43;96065.63;2069632;28;20247;-67
2022/05/30 12:33:36;;;;;;;4.53;1.20;;;;;;;18.81;31.89;96059.72;2090753;28;20227;-67
2022/05/30 12:35:10;;;;;;;17.77;1.25;;;;;;;19.08;32.41;96072.38;2077102;28;20185;-67
2022/05/30 12:36:17;;;;;;;3.10;1.35;;;;;;;19.26;31.37;96074.34;2076297;28;20255;-67
2022/05/30 12:37:45;;;;;;;3.38;1.25;;;;;;;20.23;31.74;96072.72;2082411;28;20224;-67
2022/05/30 12:38:58;;;;;;;8.00;1.67;;;;;;;19.90;30.15;96059.78;2082852;28;20736;-68
2022/05/30 12:40:00;;;;;;;5.78;1.92;;;;;;;19.32;28.89;96075.63;2077419;28;20193;-67
2022/05/30 12:41:30;;;;;;;9.68;1.95;;;;;;;19.41;28.73;96074.78;2075324;28;20755;-66
2022/05/30 12:42:34;;;;;;;8.05;1.20;;;;;;;19.52;28.50;96064.06;2075711;28;20244;-67
2022/05/30 12:43:43;;;;;;;5.93;1.30;;;;;;;18.37;29.63;96059.09;2071236;28;20282;-67
2022/05/30 12:44:51;;;;;;;8.45;1.95;;;;;;;19.05;29.95;96066.50;2069074;28;20202;-67
2022/05/30 12:45:55;;;;;;;5.90;1.00;;;;;;;20.32;29.53;96065.72;2065492;28;20221;-67
2022/05/30 12:47:27;;;;;;;13.27;1.50;;;;;;;20.79;29.75;96071.03;2067204;28;20908;-67
2022/05/30 12:48:36;;;;;;;4.70;1.30;;;;;;;21.90;28.18;96062.09;2073930;28;20193;-67
2022/05/30 12:49:37;;;;;;;7.38;1.50;;;;;;;22.23;28.77;96069.50;2076627;28;20224;-67
2022/05/30 12:50:51;;;;;;;3.70;1.50;;;;;;;21.76;28.58;96071.44;2076629;28;20209;-67
2022/05/30 12:52:13;;;;;;;3.25;1.55;;;;;;;21.84;28.17;96073.38;2072856;28;20216;-70
2022/05/30 12:53:14;;;;;;;6.32;1.75;;;;;;;22.00;27.23;96073.50;2088529;28;20203;-67
2022/05/30 12:54:26;;;;;;;73.20;39.38;;;;;;;21.75;28.44;96060.97;2075849;28;20921;-67
2022/05/30 12:55:57;;;;;;;5.50;2.40;;;;;;;21.66;28.03;96068.88;2072599;28;20328;-67
2022/05/30 12:57:11;;;;;;;3.55;1.30;;;;;;;21.60;28.16;96069.47;2068371;28;20220;-67
2022/05/30 12:58:20;;;;;;;9.32;1.40;;;;;;;22.55;27.87;96066.25;2074292;28;20642;-66
2022/05/30 12:59:31;;;;;;;3.70;1.20;;;;;;;23.01;27.61;96076.63;2068236;28;20202;-67
2022/05/30 13:00:35;;;;;;;4.13;1.10;;;;;;;23.37;28.23;96078.28;2076658;28;20556;-67
2022/05/30 13:01:42;;;;;;;1.15;0.90;;;;;;;23.33;28.15;96080.44;2067631;28;20569;-67
2022/05/30 13:03:03;;;;;;;3.63;1.15;;;;;;;22.71;26.53;96068.16;2092112;28;20208;-66
2022/05/30 13:04:08;;;;;;;5.15;1.15;;;;;;;22.75;27.74;96074.00;2078046;28;20202;-67
2022/05/30 13:05:23;;;;;;;3.85;1.50;;;;;;;21.89;26.48;96073.75;2077233;28;20556;-66
2022/05/30 13:06:30;;;;;;;4.32;1.55;;;;;;;21.61;28.60;96071.16;2075483;28;20616;-66
2022/05/30 13:07:31;;;;;;;7.82;1.70;;;;;;;22.33;28.32;96070.22;2074508;28;20572;-67
2022/05/30 13:09:03;;;;;;;8.23;1.38;;;;;;;22.52;26.04;96073.72;2075727;28;20219;-67
2022/05/30 13:10:09;;;;;;;8.63;1.38;;;;;;;23.07;26.12;96064.50;2075436;28;20664;-66
2022/05/30 13:11:31;;;;;;;2.45;1.40;;;;;;;23.69;26.16;96068.69;2077630;28;20201;-67
2022/05/30 13:12:51;;;;;;;4.55;1.15;;;;;;;24.11;24.88;96070.38;2079306;28;20208;-67
2022/05/30 13:14:02;;;;;;;4.53;1.15;;;;;;;24.12;24.88;96074.72;2073435;28;20197;-66
2022/05/30 13:15:10;;;;;;;1.58;1.20;;;;;;;23.53;24.84;96037.50;2073745;28;20240;-67
2022/05/30 13:16:33;;;;;;;1.45;1.10;;;;;;;23.20;26.84;96072.91;2072881;28;20198;-67
2022/05/30 13:17:53;;;;;;;2.92;1.10;;;;;;;24.27;26.37;96078.38;2074028;28;20229;-67
2022/05/30 13:18:55;;;;;;;3.67;1.30;;;;;;;22.87;24.77;96070.09;2075845;28;20222;-66
2022/05/30 13:20:11;;;;;;;4.72;1.02;;;;;;;22.95;26.03;96066.63;2078237;28;20439;-67
2022/05/30 13:21:13;;;;;;;4.18;1.30;;;;;;;24.01;26.64;96069.72;2079257;28;20204;-67
2022/05/30 13:22:19;;;;;;;3.90;1.35;;;;;;;24.21;25.92;96078.22;2076595;28;20222;-67
2022/05/30 13:23:34;;;;;;;3.25;1.50;;;;;;;24.76;24.38;96082.03;2087270;28;20196;-66
2022/05/30 13:24:38;;;;;;;3.90;1.30;;;;;;;24.56;23.89;96073.53;2077186;28;20192;-66
2022/05/30 13:25:42;;;;;;;2.55;1.15;;;;;;;24.33;24.19;96079.56;2074962;28;20208;-67
2022/05/30 13:26:44;;;;;;;4.40;1.13;;;;;;;23.54;24.13;96077.31;2074912;28;20224;-67
2022/05/30 13:27:48;;;;;;;3.63;1.33;;;;;;;22.53;24.96;96078.06;2070722;28;20194;-67
2022/05/30 13:28:50;;;;;;;3.45;1.00;;;;;;;22.31;24.95;96073.06;2073027;28;20204;-67
2022/05/30 13:29:52;;;;;;;6.38;1.75;;;;;;;21.35;25.84;96073.69;2076493;28;20203;-67
2022/05/30 13:30:55;;;;;;;1.80;1.02;;;;;;;20.38;26.06;96073.09;2075173;28;20266;-67
2022/05/30 13:31:57;;;;;;;2.85;1.10;;;;;;;19.48;28.10;96070.63;2074956;28;20220;-68
2022/05/30 13:32:59;;;;;;;3.58;1.65;;;;;;;20.56;26.75;96074.00;2091052;28;20545;-67
2022/05/30 13:34:00;;;;;;;4.45;1.33;;;;;;;20.27;27.38;96065.31;2079303;28;20668;-67
2022/05/30 13:35:09;;;;;;;8.60;1.35;;;;;;;20.29;27.63;96076.59;2072727;28;20677;-67
2022/05/30 13:36:29;;;;;;;8.18;1.65;;;;;;;20.97;29.88;96081.69;2064928;28;20201;-68
2022/05/30 13:37:33;;;;;;;3.42;1.30;;;;;;;21.79;29.13;96078.31;2067089;28;20233;-68
2022/05/30 13:38:45;;;;;;;10.68;1.92;;;;;;;22.26;28.03;96085.13;2072272;28;20197;-68
2022/05/30 13:39:46;;;;;;;4.55;1.48;;;;;;;22.38;28.26;96077.78;2076227;28;20197;-68
2022/05/30 13:40:48;;;;;;;5.65;1.45;;;;;;;22.32;28.08;96073.88;2075369;28;20209;-67
2022/05/30 13:41:51;;;;;;;3.20;1.55;;;;;;;22.71;27.81;96072.66;2068927;28;20228;-67
2022/05/30 13:43:07;;;;;;;6.50;1.20;;;;;;;22.61;27.47;96068.28;2083302;28;20291;-67
2022/05/30 13:44:33;;;;;;;6.63;1.60;;;;;;;23.34;27.43;96076.78;2074176;28;20266;-67
2022/05/30 13:45:45;;;;;;;6.00;1.13;;;;;;;24.20;26.63;96080.06;2072553;28;20194;-67
2022/05/30 13:47:00;;;;;;;4.57;1.30;;;;;;;24.22;26.40;96080.72;2073384;28;20232;-66
2022/05/30 13:48:09;;;;;;;3.08;1.17;;;;;;;24.24;25.41;96076.06;2073837;28;20228;-67
2022/05/30 13:49:30;;;;;;;4.50;1.15;;;;;;;23.07;26.59;96061.81;2071908;28;20556;-67
2022/05/30 13:51:02;;;;;;;7.80;1.48;;;;;;;23.83;26.73;96070.69;2075148;28;20201;-67
2022/05/30 13:52:13;;;;;;;4.68;1.33;;;;;;;23.98;26.01;96062.91;2075800;28;20224;-67
2022/05/30 13:53:19;;;;;;;5.13;1.98;;;;;;;24.32;25.89;96074.41;2089191;28;20191;-67
2022/05/30 13:54:24;;;;;;;9.02;1.33;;;;;;;23.61;24.63;96069.50;2072381;28;20206;-67
2022/05/30 13:55:26;;;;;;;2.75;1.25;;;;;;;23.06;26.17;96066.34;2068199;28;20205;-67
2022/05/30 13:56:34;;;;;;;5.88;1.10;;;;;;;23.80;25.70;96065.69;2058879;28;20337;-67
2022/05/30 13:57:37;;;;;;;4.00;1.50;;;;;;;22.37;25.54;96065.47;2091907;28;20199;-67
2022/05/30 13:58:46;;;;;;;3.10;1.10;;;;;;;22.44;27.03;96062.03;2081246;28;20697;-67
2022/05/30 13:59:51;;;;;;;4.50;1.13;;;;;;;23.64;26.01;96059.34;2068799;28;20201;-67
2022/05/30 14:01:15;;;;;;;4.20;1.55;;;;;;;22.09;26.04;96065.56;2074955;28;20206;-67
2022/05/30 14:02:22;;;;;;;2.28;1.20;;;;;;;22.18;27.97;96064.63;2080458;28;20797;-67
2022/05/30 14:03:25;;;;;;;2.15;1.23;;;;;;;23.45;26.08;96065.81;2074242;28;20869;-67
2022/05/30 14:04:35;;;;;;;2.35;1.20;;;;;;;23.51;25.49;96064.31;2065875;28;20209;-67
2022/05/30 14:05:40;;;;;;;3.78;1.52;;;;;;;22.67;26.65;96067.63;2077347;28;20193;-67
2022/05/30 14:06:45;;;;;;;4.13;1.30;;;;;;;23.29;26.11;96071.91;2075155;28;20224;-67
2022/05/30 14:07:50;;;;;;;1.90;1.20;;;;;;;22.29;27.09;96064.38;2073204;28;20197;-67
2022/05/30 14:08:51;;;;;;;8.82;1.15;;;;;;;22.35;25.97;96060.28;2070004;28;20201;-67
2022/05/30 14:09:59;;;;;;;4.05;1.48;;;;;;;21.48;26.42;96050.25;2073568;28;20321;-67
2022/05/30 14:11:09;;;;;;;2.28;1.15;;;;;;;21.82;26.57;96046.09;2075023;28;20586;-67
2022/05/30 14:12:11;;;;;;;1.25;0.90;;;;;;;22.20;26.54;96054.69;2080794;28;20219;-67
2022/05/30 14:13:33;;;;;;;11.95;1.40;;;;;;;23.00;26.02;96057.16;2092236;28;20219;-67
2022/05/30 14:14:43;;;;;;;2.58;1.30;;;;;;;23.02;25.38;96058.81;2077077;28;20250;-67
2022/05/30 14:15:53;;;;;;;5.55;1.85;;;;;;;23.17;25.53;96059.06;2071575;28;20656;-68
2022/05/30 14:16:57;;;;;;;3.10;1.30;;;;;;;23.19;25.18;96065.09;2075879;28;20660;-67
2022/05/30 14:18:23;;;;;;;8.43;1.45;;;;;;;22.60;26.53;96055.97;2092646;28;20274;-67
2022/05/30 14:19:25;;;;;;;2.70;1.10;;;;;;;22.57;27.06;96061.59;2076963;28;20200;-67
2022/05/30 14:20:32;;;;;;;5.32;1.25;;;;;;;22.87;26.30;96069.22;2078190;28;20565;-67
2022/05/30 14:21:38;;;;;;;2.03;1.17;;;;;;;23.45;24.79;96062.31;2066484;28;20197;-67
2022/05/30 14:22:51;;;;;;;2.50;1.45;;;;;;;22.97;24.36;96049.50;2090182;28;20200;-67
2022/05/30 14:23:54;;;;;;;3.63;1.35;;;;;;;20.61;27.25;96054.16;2081413;28;20557;-68
2022/05/30 14:25:04;;;;;;;5.45;1.20;;;;;;;21.37;26.40;96058.44;2074918;28;20192;-68
2022/05/30 14:26:09;;;;;;;8.02;1.85;;;;;;;21.65;26.91;96051.28;2074905;28;20862;-68
2022/05/30 14:27:17;;;;;;;3.05;1.33;;;;;;;22.44;27.50;96056.72;2074791;28;20623;-67
2022/05/30 14:28:31;;;;;;;1.70;1.08;;;;;;;23.50;26.49;96051.16;2074992;28;20205;-68
2022/05/30 14:29:53;;;;;;;4.53;1.45;;;;;;;24.11;25.29;96049.91;2074079;28;20562;-67
2022/05/30 14:31:01;;;;;;;3.28;0.95;;;;;;;24.52;25.48;96059.69;2071514;28;20198;-67
2022/05/30 14:32:20;;;;;;;4.30;1.15;;;;;;;24.88;24.57;96053.94;2069856;28;20311;-67
2022/05/30 14:33:24;;;;;;;1.90;1.00;;;;;;;24.67;24.85;96051.00;2085914;28;20283;-67
2022/05/30 14:34:42;;;;;;;6.30;1.60;;;;;;;24.58;23.60;96052.81;2074101;28;20193;-67
2022/05/30 14:35:44;;;;;;;2.05;1.20;;;;;;;24.41;24.55;96055.53;2075814;28;20651;-67
2022/05/30 14:36:48;;;;;;;3.20;1.48;;;;;;;24.23;24.23;96055.72;2072412;28;20219;-67
2022/05/30 14:37:56;;;;;;;6.53;1.20;;;;;;;23.64;24.00;96062.03;2086825;28;20739;-67
2022/05/30 14:39:00;;;;;;;3.38;1.20;;;;;;;23.62;23.17;96055.19;2081846;28;20189;-67
2022/05/30 14:40:11;;;;;;;2.58;1.30;;;;;;;23.15;24.07;96051.25;2074813;28;20197;-68
2022/05/30 14:41:20;;;;;;;3.45;1.00;;;;;;;22.91;25.72;96058.13;2072473;28;20288;-67
2022/05/30 14:42:25;;;;;;;2.17;1.08;;;;;;;23.45;25.99;96060.50;2065045;28;20225;-67
2022/05/30 14:43:29;;;;;;;5.50;1.35;;;;;;;23.67;26.45;96057.34;2074636;28;20214;-67
2022/05/30 14:44:35;;;;;;;4.30;1.45;;;;;;;24.03;25.39;96059.75;2072878;28;20259;-67
2022/05/30 14:45:43;;;;;;;3.95;1.30;;;;;;;24.38;25.37;96066.53;2073696;28;20290;-67
2022/05/30 14:46:45;;;;;;;2.00;1.00;;;;;;;23.64;25.43;96062.03;2074976;28;20221;-67
2022/05/30 14:47:49;;;;;;;1.98;1.10;;;;;;;23.50;26.20;96064.47;2075759;28;20208;-67
2022/05/30 14:48:53;;;;;;;7.88;1.25;;;;;;;22.86;24.73;96055.09;2074900;28;20204;-66
2022/05/30 14:50:02;;;;;;;3.10;1.40;;;;;;;22.18;26.04;96059.31;2073425;28;20243;-67
2022/05/30 14:51:33;;;;;;;2.20;1.30;;;;;;;22.16;27.03;96062.13;2075874;28;20565;-67
2022/05/30 14:52:40;;;;;;;3.55;1.08;;;;;;;22.78;27.29;96055.91;2069179;28;20225;-67
2022/05/30 14:53:43;;;;;;;4.80;1.27;;;;;;;23.03;26.56;96061.31;2074523;28;20189;-67
2022/05/30 14:54:52;;;;;;;1.77;0.90;;;;;;;23.31;26.68;96066.44;2071035;28;20510;-67
2022/05/30 14:56:00;;;;;;;3.35;1.38;;;;;;;23.21;25.63;96063.94;2072773;28;20201;-67
2022/05/30 14:57:04;;;;;;;2.85;1.10;;;;;;;23.00;25.79;96070.44;2066996;28;20290;-67
2022/05/30 14:58:18;;;;;;;4.80;1.80;;;;;;;22.18;25.24;96061.97;2092694;28;20603;-67
2022/05/30 14:59:45;;;;;;;3.35;1.58;;;;;;;22.31;25.15;96059.75;2076009;28;20204;-67
2022/05/30 15:00:59;;;;;;;5.63;1.33;;;;;;;21.92;25.86;96067.28;2072329;28;20253;-67
2022/05/30 15:02:01;;;;;;;2.28;1.05;;;;;;;22.23;26.28;96054.38;2073950;28;20220;-67
2022/05/30 15:04:22;;;;;;;1.70;0.98;;;;;;;23.52;25.53;96059.84;2076145;28;20208;-67
2022/05/30 15:05:29;;;;;;;4.63;1.30;;;;;;;24.21;25.84;96064.88;2078612;28;20190;-67
2022/05/30 15:06:30;;;;;;;2.95;1.05;;;;;;;24.48;25.08;96061.03;2076839;28;20208;-67
2022/05/30 15:07:34;;;;;;;2.35;1.10;;;;;;;23.55;25.74;96070.97;2073545;28;20231;-67
2022/05/30 15:08:36;;;;;;;2.10;1.00;;;;;;;24.19;25.41;96061.53;2072485;28;20193;-67
2022/05/30 15:09:44;;;;;;;4.43;1.45;;;;;;;23.52;25.28;96066.00;2070508;28;20650;-67
2022/05/30 15:10:46;;;;;;;4.35;1.38;;;;;;;23.64;24.18;96063.84;2073357;28;20286;-66
2022/05/30 15:11:47;;;;;;;4.00;1.50;;;;;;;22.98;24.87;96055.63;2069779;28;20226;-67
2022/05/30 15:12:49;;;;;;;3.58;1.10;;;;;;;23.62;25.06;96071.19;2093172;28;20200;-67
2022/05/30 15:13:57;;;;;;;4.10;1.10;;;;;;;23.62;25.68;96065.84;2078680;28;20197;-67
2022/05/30 15:14:59;;;;;;;2.70;1.05;;;;;;;22.34;26.85;96061.28;2075445;28;20941;-67
2022/05/30 15:16:00;;;;;;;1.92;1.00;;;;;;;22.73;26.97;96066.19;2075362;28;20203;-67
2022/05/30 15:17:02;;;;;;;6.10;1.20;;;;;;;23.50;26.66;96067.97;2076328;28;20582;-67
2022/05/30 15:18:04;;;;;;;4.22;1.20;;;;;;;22.87;27.15;96066.56;2083006;28;20212;-66
2022/05/30 15:19:05;;;;;;;3.47;1.20;;;;;;;23.24;26.26;96066.25;2076527;28;20193;-67
2022/05/30 15:20:08;;;;;;;4.82;1.45;;;;;;;23.38;26.85;96069.31;2074100;28;20201;-67
2022/05/30 15:21:25;;;;;;;2.90;1.23;;;;;;;23.54;26.38;96069.34;2073282;28;20671;-66
2022/05/30 15:22:27;;;;;;;1.65;1.10;;;;;;;23.81;25.82;96067.38;2065830;28;20221;-62
2022/05/30 15:23:28;;;;;;;1.67;1.00;;;;;;;23.74;25.87;96064.50;2064558;28;20195;-62
2022/05/30 15:25:10;;;;;;;6.57;1.23;;;;;;;23.37;25.01;96071.09;2075952;28;20242;-62
2022/05/30 15:26:11;;;;;;;1.98;1.23;;;;;;;23.42;25.33;96068.78;2057037;28;20194;-61
2022/05/30 15:27:13;;;;;;;7.95;1.50;;;;;;;23.44;25.68;96064.16;2055542;28;20234;-61
2022/05/30 15:28:15;;;;;;;3.30;1.00;;;;;;;22.98;26.97;96045.00;2056146;28;20550;-61
2022/05/30 15:29:17;;;;;;;3.35;1.15;;;;;;;21.98;28.16;96056.88;2058924;28;20222;-61
2022/05/30 15:30:19;;;;;;;2.28;0.88;;;;;;;22.23;27.50;96062.34;2060680;28;20195;-62
2022/05/30 15:31:26;;;;;;;5.03;1.10;;;;;;;21.31;28.97;96057.19;2061210;28;20243;-61
2022/05/30 15:32:28;;;;;;;2.70;1.35;;;;;;;21.47;28.98;96059.22;2058636;28;20254;-62
2022/05/30 15:33:29;;;;;;;3.50;1.10;;;;;;;21.71;28.81;96054.31;2058849;28;20206;-61
2022/05/30 15:34:32;;;;;;;4.70;2.45;;;;;;;21.96;28.85;96061.47;2058932;28;20202;-62
2022/05/30 15:35:33;;;;;;;2.95;1.42;;;;;;;22.81;28.52;96062.72;2059822;28;20206;-61
2022/05/30 15:36:35;;;;;;;4.43;1.35;;;;;;;23.50;26.91;96062.66;2052546;28;20210;-62
2022/05/30 15:37:39;;;;;;;3.80;1.23;;;;;;;23.51;25.95;96064.31;2065949;28;20202;-61
2022/05/30 15:38:41;;;;;;;2.65;1.02;;;;;;;23.06;26.47;96058.34;2063776;28;20205;-62
2022/05/30 15:39:43;;;;;;;4.30;1.30;;;;;;;23.23;26.22;96069.09;2057290;28;20195;-61
2022/05/30 15:40:45;;;;;;;2.13;1.23;;;;;;;22.92;26.10;96058.94;2057553;28;20201;-61
2022/05/30 15:41:56;;;;;;;6.20;1.30;;;;;;;23.21;26.42;96061.25;2052716;28;20233;-62
2022/05/30 15:42:57;;;;;;;4.15;1.25;;;;;;;23.38;26.04;96056.81;2066803;28;20198;-62
2022/05/30 15:44:10;;;;;;;5.57;1.30;;;;;;;23.28;26.27;96061.44;2061629;28;20263;-61
2022/05/30 15:45:12;;;;;;;3.35;1.40;;;;;;;22.59;26.57;96054.31;2059028;28;20210;-63
2022/05/30 15:46:17;;;;;;;4.57;1.35;;;;;;;22.60;26.00;96055.13;2056491;28;20210;-67
2022/05/30 15:47:19;;;;;;;2.92;1.30;;;;;;;22.15;27.04;96064.97;2054136;28;20343;-68
2022/05/30 15:48:21;;;;;;;2.92;1.50;;;;;;;21.78;27.81;96055.38;2055544;28;20195;-64
2022/05/30 15:49:26;;;;;;;4.63;1.15;;;;;;;21.83;27.94;96061.88;2061074;28;20199;-63
2022/05/30 15:50:32;;;;;;;3.50;1.30;;;;;;;20.98;28.56;96054.19;2056278;28;20202;-62
2022/05/30 15:51:34;;;;;;;4.30;1.25;;;;;;;20.94;28.97;96062.56;2049445;28;20207;-62
2022/05/30 15:58:06;;;;;;;3.40;1.35;;;;;;;20.56;29.74;96060.75;2066719;28;20514;-67
2022/05/30 15:59:08;;;;;;;5.30;1.60;;;;;;;20.80;29.94;96066.59;2061031;28;20260;-66
2022/05/30 16:00:19;;;;;;;4.07;1.08;;;;;;;21.10;29.45;96061.94;2059928;28;20205;-67
2022/05/30 16:01:21;;;;;;;2.95;1.17;;;;;;;20.76;29.86;96060.72;2069455;28;20220;-66
2022/05/30 16:02:25;;;;;;;5.35;1.30;;;;;;;20.58;28.91;96052.66;2063375;28;20218;-66
2022/05/30 16:03:26;;;;;;;4.55;1.40;;;;;;;20.46;29.97;96065.25;2075217;28;20247;-66
2022/05/30 16:04:28;;;;;;;3.65;1.40;;;;;;;21.06;29.61;96063.22;2077423;28;20533;-66
2022/05/30 16:05:30;;;;;;;7.82;1.30;;;;;;;21.32;29.02;96068.69;2079417;28;20604;-66
2022/05/30 16:06:33;;;;;;;3.72;1.40;;;;;;;21.60;28.68;96063.31;2077702;28;20202;-66
2022/05/30 16:07:38;;;;;;;6.85;1.10;;;;;;;21.43;28.42;96052.50;2076248;28;20205;-67
2022/05/30 16:08:45;;;;;;;3.78;1.20;;;;;;;21.37;30.11;96069.88;2076203;28;20645;-67
2022/05/30 16:09:50;;;;;;;4.22;1.48;;;;;;;21.64;29.21;96054.91;2077978;28;20610;-66
2022/05/30 16:10:52;;;;;;;6.10;1.60;;;;;;;21.68;28.23;96060.75;2077311;28;20232;-66
2022/05/30 16:11:54;;;;;;;1.85;1.02;;;;;;;21.32;28.43;96064.19;2070044;28;20233;-66
2022/05/30 16:12:56;;;;;;;3.90;0.95;;;;;;;21.34;29.38;96061.38;2083540;28;20200;-66
2022/05/30 16:13:58;;;;;;;4.70;1.48;;;;;;;21.69;29.22;96068.56;2079579;28;20197;-67
2022/05/30 16:14:59;;;;;;;3.33;1.30;;;;;;;21.95;29.14;96059.84;2074982;28;20209;-67
2022/05/30 16:16:01;;;;;;;3.45;1.60;;;;;;;21.94;28.58;96068.78;2074146;28;20194;-67
2022/05/30 16:17:04;;;;;;;4.25;1.63;;;;;;;21.72;29.17;96059.44;2061987;28;20279;-67
2022/05/30 16:18:06;;;;;;;4.03;1.20;;;;;;;21.69;28.69;96052.63;2076826;28;20197;-67
2022/05/30 16:19:07;;;;;;;1.90;1.02;;;;;;;21.61;29.37;96060.53;2079975;28;20210;-67
2022/05/30 16:20:11;;;;;;;2.60;1.40;;;;;;;21.79;30.33;96067.69;2074918;28;20198;-67
2022/05/30 16:21:16;;;;;;;3.83;1.00;;;;;;;21.64;30.14;96062.88;2071562;28;20697;-67
2022/05/30 16:22:40;;;;;;;7.00;1.40;;;;;;;22.03;28.85;96067.03;2061464;28;20229;-67
2022/05/30 16:23:45;;;;;;;3.75;1.02;;;;;;;21.88;28.89;96060.56;2074581;28;20524;-67
2022/05/30 16:24:47;;;;;;;1.42;1.10;;;;;;;21.59;29.61;96059.84;2077014;28;20208;-67
2022/05/30 16:25:59;;;;;;;3.92;1.38;;;;;;;21.77;29.62;96059.84;2072432;28;20206;-69
2022/05/30 16:27:05;;;;;;;5.03;1.58;;;;;;;21.72;30.11;96050.66;2076184;28;20940;-68